To NAV CANADA Home Page Login to a new session Search on AWWS site Feedback and Comments Disclaimer Vers la page française équivalente Tips FAQ What's new on the site To the Forecasts and Observations / NOTAM section To "File a Flight Plan" website Publications and other links Update of the User's profile FIC Telephone Numbers My Weather Data Folder Route Weather Data Regional Weather Data Local Weather Data To the Forecasts and Observations / NOTAM section
Request Generated 07/30/2015 at 10:05:01 UTC . Weather information available at that time is displayed.

METAR/TAF

MAKKOVIK/NL    

METAR CYFT 301000Z VRB02KT 15SM FEW003 FEW007 BKN075 10/10 A2989 RMK
ST1ST1AC5 ST TR @ 3 SLP126=
SPECI CYFT 300951Z 05005KT 15SM FEW003 BKN075 10/09 A2990 RMK ST1AC5
SLP127=
SPECI CYFT 300934Z 07006KT 010V100 15SM BCFG SCT002 BKN090 10/09
A2990 RMK ST3AC4 ST OVR RNWY SLP128=
METAR CYFT 300900Z 03004KT 15SM BCFG FEW003 SCT045 BKN090 09/09 A2990
RMK ST1SC2AC2 SLP128=
LWIS CYFT 300800Z AUTO 05006KT 360V070 09/08 A2990=

CYFT - No TAF is issued for this station

Your time UTC time
Weather data provided by Environment Canada and NAV CANADA